sensor_id;sensor_type;location;lat;lon;timestamp;P1;durP1;ratioP1;P2;durP2;ratioP2
31966;SDS011;18496;52.042;6.812;2024-03-02T00:02:53;6.70;;;1.77;;
31966;SDS011;18496;52.042;6.812;2024-03-02T00:04:56;2.53;;;1.92;;
31966;SDS011;18496;52.042;6.812;2024-03-02T00:07:00;5.00;;;2.10;;
31966;SDS011;18496;52.042;6.812;2024-03-02T00:09:04;2.47;;;1.83;;
31966;SDS011;18496;52.042;6.812;2024-03-02T00:11:07;3.85;;;2.17;;
31966;SDS011;18496;52.042;6.812;2024-03-02T00:13:11;2.80;;;1.88;;
31966;SDS011;18496;52.042;6.812;2024-03-02T00:17:41;5.82;;;2.85;;
31966;SDS011;18496;52.042;6.812;2024-03-02T00:19:45;8.15;;;2.75;;
31966;SDS011;18496;52.042;6.812;2024-03-02T00:21:48;8.40;;;3.67;;
31966;SDS011;18496;52.042;6.812;2024-03-02T00:23:52;5.82;;;3.00;;
31966;SDS011;18496;52.042;6.812;2024-03-02T00:25:56;4.85;;;2.60;;
31966;SDS011;18496;52.042;6.812;2024-03-02T00:28:00;4.65;;;2.35;;
31966;SDS011;18496;52.042;6.812;2024-03-02T00:32:56;3.58;;;2.08;;
31966;SDS011;18496;52.042;6.812;2024-03-02T00:35:00;7.68;;;2.90;;
31966;SDS011;18496;52.042;6.812;2024-03-02T00:37:03;3.88;;;1.90;;
31966;SDS011;18496;52.042;6.812;2024-03-02T00:39:07;6.55;;;2.08;;
31966;SDS011;18496;52.042;6.812;2024-03-02T00:41:15;4.95;;;2.35;;
31966;SDS011;18496;52.042;6.812;2024-03-02T00:43:45;6.88;;;2.58;;
31966;SDS011;18496;52.042;6.812;2024-03-02T00:45:51;4.85;;;3.00;;
31966;SDS011;18496;52.042;6.812;2024-03-02T00:47:55;5.85;;;2.50;;
31966;SDS011;18496;52.042;6.812;2024-03-02T00:49:59;6.38;;;2.75;;
31966;SDS011;18496;52.042;6.812;2024-03-02T00:52:03;5.43;;;2.92;;
31966;SDS011;18496;52.042;6.812;2024-03-02T00:54:07;5.47;;;2.38;;
31966;SDS011;18496;52.042;6.812;2024-03-02T00:56:12;5.22;;;1.83;;
31966;SDS011;18496;52.042;6.812;2024-03-02T00:58:16;3.30;;;2.15;;
31966;SDS011;18496;52.042;6.812;2024-03-02T01:00:20;3.65;;;2.47;;
31966;SDS011;18496;52.042;6.812;2024-03-02T01:02:23;7.38;;;1.90;;
31966;SDS011;18496;52.042;6.812;2024-03-02T01:04:27;5.63;;;2.33;;
31966;SDS011;18496;52.042;6.812;2024-03-02T01:06:31;4.20;;;2.30;;
31966;SDS011;18496;52.042;6.812;2024-03-02T01:08:35;5.15;;;2.10;;
31966;SDS011;18496;52.042;6.812;2024-03-02T01:10:39;3.35;;;2.05;;
31966;SDS011;18496;52.042;6.812;2024-03-02T01:12:42;4.32;;;2.35;;
31966;SDS011;18496;52.042;6.812;2024-03-02T01:14:46;4.55;;;2.00;;
31966;SDS011;18496;52.042;6.812;2024-03-02T01:16:50;8.63;;;2.00;;
31966;SDS011;18496;52.042;6.812;2024-03-02T01:18:53;5.43;;;2.13;;
31966;SDS011;18496;52.042;6.812;2024-03-02T01:20:57;5.22;;;2.13;;
31966;SDS011;18496;52.042;6.812;2024-03-02T01:23:01;4.95;;;2.05;;
31966;SDS011;18496;52.042;6.812;2024-03-02T01:25:05;4.40;;;2.03;;
31966;SDS011;18496;52.042;6.812;2024-03-02T01:27:09;2.63;;;2.03;;
31966;SDS011;18496;52.042;6.812;2024-03-02T01:29:12;3.50;;;2.13;;
31966;SDS011;18496;52.042;6.812;2024-03-02T01:31:16;3.00;;;1.85;;
31966;SDS011;18496;52.042;6.812;2024-03-02T01:33:20;3.33;;;2.13;;
31966;SDS011;18496;52.042;6.812;2024-03-02T01:35:24;3.95;;;2.08;;
31966;SDS011;18496;52.042;6.812;2024-03-02T01:37:29;2.83;;;1.77;;
31966;SDS011;18496;52.042;6.812;2024-03-02T01:39:33;2.65;;;1.60;;
31966;SDS011;18496;52.042;6.812;2024-03-02T01:41:37;2.72;;;1.92;;
31966;SDS011;18496;52.042;6.812;2024-03-02T01:43:40;5.03;;;2.05;;
31966;SDS011;18496;52.042;6.812;2024-03-02T01:45:44;6.13;;;2.10;;
31966;SDS011;18496;52.042;6.812;2024-03-02T01:47:48;4.88;;;2.38;;
31966;SDS011;18496;52.042;6.812;2024-03-02T01:49:52;2.55;;;1.75;;
31966;SDS011;18496;52.042;6.812;2024-03-02T01:51:56;5.03;;;2.60;;
31966;SDS011;18496;52.042;6.812;2024-03-02T01:53:59;2.38;;;1.75;;
31966;SDS011;18496;52.042;6.812;2024-03-02T01:56:03;3.10;;;2.25;;
31966;SDS011;18496;52.042;6.812;2024-03-02T01:58:07;2.95;;;1.42;;
31966;SDS011;18496;52.042;6.812;2024-03-02T02:00:11;3.53;;;1.77;;
31966;SDS011;18496;52.042;6.812;2024-03-02T02:02:16;3.10;;;1.95;;
31966;SDS011;18496;52.042;6.812;2024-03-02T02:04:20;4.55;;;2.00;;
31966;SDS011;18496;52.042;6.812;2024-03-02T02:06:30;4.20;;;2.00;;
31966;SDS011;18496;52.042;6.812;2024-03-02T02:08:33;3.33;;;1.83;;
31966;SDS011;18496;52.042;6.812;2024-03-02T02:10:37;2.80;;;1.95;;
31966;SDS011;18496;52.042;6.812;2024-03-02T02:12:41;5.30;;;2.05;;
31966;SDS011;18496;52.042;6.812;2024-03-02T02:14:48;3.22;;;1.95;;
31966;SDS011;18496;52.042;6.812;2024-03-02T02:16:53;4.47;;;2.00;;
31966;SDS011;18496;52.042;6.812;2024-03-02T02:18:56;3.80;;;1.73;;
31966;SDS011;18496;52.042;6.812;2024-03-02T02:21:00;5.15;;;2.10;;
31966;SDS011;18496;52.042;6.812;2024-03-02T02:23:04;3.03;;;2.00;;
31966;SDS011;18496;52.042;6.812;2024-03-02T02:25:09;7.07;;;2.67;;
31966;SDS011;18496;52.042;6.812;2024-03-02T02:27:12;3.00;;;1.80;;
31966;SDS011;18496;52.042;6.812;2024-03-02T02:29:18;2.75;;;2.20;;
31966;SDS011;18496;52.042;6.812;2024-03-02T02:31:22;4.40;;;2.00;;
31966;SDS011;18496;52.042;6.812;2024-03-02T02:33:25;3.50;;;1.70;;
31966;SDS011;18496;52.042;6.812;2024-03-02T02:35:29;4.03;;;2.20;;
31966;SDS011;18496;52.042;6.812;2024-03-02T02:37:33;2.97;;;1.80;;
31966;SDS011;18496;52.042;6.812;2024-03-02T02:39:37;2.40;;;1.60;;
31966;SDS011;18496;52.042;6.812;2024-03-02T02:41:40;3.30;;;1.38;;
31966;SDS011;18496;52.042;6.812;2024-03-02T02:43:44;1.60;;;1.10;;
31966;SDS011;18496;52.042;6.812;2024-03-02T02:45:48;2.47;;;1.10;;
31966;SDS011;18496;52.042;6.812;2024-03-02T02:47:51;3.83;;;1.33;;
31966;SDS011;18496;52.042;6.812;2024-03-02T02:49:55;2.80;;;1.27;;
31966;SDS011;18496;52.042;6.812;2024-03-02T02:51:59;3.80;;;1.15;;
31966;SDS011;18496;52.042;6.812;2024-03-02T02:54:03;2.83;;;1.35;;
31966;SDS011;18496;52.042;6.812;2024-03-02T02:56:06;3.28;;;1.23;;
31966;SDS011;18496;52.042;6.812;2024-03-02T02:58:10;3.58;;;1.20;;
31966;SDS011;18496;52.042;6.812;2024-03-02T03:00:14;3.70;;;1.20;;
31966;SDS011;18496;52.042;6.812;2024-03-02T03:02:19;2.92;;;1.13;;
31966;SDS011;18496;52.042;6.812;2024-03-02T03:04:23;8.18;;;1.35;;
31966;SDS011;18496;52.042;6.812;2024-03-02T03:06:26;5.75;;;1.23;;
31966;SDS011;18496;52.042;6.812;2024-03-02T03:08:30;3.20;;;1.08;;
31966;SDS011;18496;52.042;6.812;2024-03-02T03:10:34;4.30;;;1.45;;
31966;SDS011;18496;52.042;6.812;2024-03-02T03:12:38;4.53;;;1.55;;
31966;SDS011;18496;52.042;6.812;2024-03-02T03:14:44;4.18;;;1.48;;
31966;SDS011;18496;52.042;6.812;2024-03-02T03:16:47;1.83;;;1.13;;
31966;SDS011;18496;52.042;6.812;2024-03-02T03:18:51;4.07;;;1.35;;
31966;SDS011;18496;52.042;6.812;2024-03-02T03:20:56;3.08;;;1.60;;
31966;SDS011;18496;52.042;6.812;2024-03-02T03:23:00;5.22;;;1.73;;
31966;SDS011;18496;52.042;6.812;2024-03-02T03:25:04;2.05;;;1.33;;
31966;SDS011;18496;52.042;6.812;2024-03-02T03:27:08;3.58;;;1.40;;
31966;SDS011;18496;52.042;6.812;2024-03-02T03:29:13;4.30;;;1.80;;
31966;SDS011;18496;52.042;6.812;2024-03-02T03:31:17;2.00;;;1.30;;
31966;SDS011;18496;52.042;6.812;2024-03-02T03:33:20;3.80;;;1.90;;
31966;SDS011;18496;52.042;6.812;2024-03-02T03:35:24;4.30;;;1.80;;
31966;SDS011;18496;52.042;6.812;2024-03-02T03:37:28;2.28;;;1.65;;
31966;SDS011;18496;52.042;6.812;2024-03-02T03:39:35;3.28;;;1.77;;
31966;SDS011;18496;52.042;6.812;2024-03-02T03:41:40;5.78;;;2.05;;
31966;SDS011;18496;52.042;6.812;2024-03-02T03:43:44;3.72;;;1.88;;
31966;SDS011;18496;52.042;6.812;2024-03-02T03:45:47;4.45;;;2.25;;
31966;SDS011;18496;52.042;6.812;2024-03-02T03:47:51;3.47;;;2.22;;
31966;SDS011;18496;52.042;6.812;2024-03-02T03:49:55;6.57;;;2.17;;
31966;SDS011;18496;52.042;6.812;2024-03-02T03:51:59;6.43;;;2.42;;
31966;SDS011;18496;52.042;6.812;2024-03-02T03:54:03;7.20;;;2.80;;
31966;SDS011;18496;52.042;6.812;2024-03-02T03:56:07;7.10;;;2.50;;
31966;SDS011;18496;52.042;6.812;2024-03-02T03:58:11;5.07;;;2.08;;
31966;SDS011;18496;52.042;6.812;2024-03-02T04:00:14;5.07;;;2.20;;
31966;SDS011;18496;52.042;6.812;2024-03-02T04:02:18;5.30;;;2.22;;
31966;SDS011;18496;52.042;6.812;2024-03-02T04:04:22;8.13;;;2.25;;
31966;SDS011;18496;52.042;6.812;2024-03-02T04:06:26;4.18;;;2.00;;
31966;SDS011;18496;52.042;6.812;2024-03-02T04:08:30;2.80;;;1.92;;
31966;SDS011;18496;52.042;6.812;2024-03-02T04:10:34;4.68;;;1.65;;
31966;SDS011;18496;52.042;6.812;2024-03-02T04:12:38;5.82;;;2.22;;
31966;SDS011;18496;52.042;6.812;2024-03-02T04:14:42;6.53;;;2.28;;
31966;SDS011;18496;52.042;6.812;2024-03-02T04:16:46;4.88;;;1.40;;
31966;SDS011;18496;52.042;6.812;2024-03-02T04:18:49;3.75;;;1.73;;
31966;SDS011;18496;52.042;6.812;2024-03-02T04:20:53;4.28;;;1.77;;
31966;SDS011;18496;52.042;6.812;2024-03-02T04:22:57;6.38;;;1.85;;
31966;SDS011;18496;52.042;6.812;2024-03-02T04:25:03;3.45;;;1.77;;
31966;SDS011;18496;52.042;6.812;2024-03-02T04:27:07;3.50;;;1.45;;
31966;SDS011;18496;52.042;6.812;2024-03-02T04:29:11;5.38;;;1.70;;
31966;SDS011;18496;52.042;6.812;2024-03-02T04:31:15;3.97;;;2.00;;
31966;SDS011;18496;52.042;6.812;2024-03-02T04:33:19;1.77;;;1.00;;
31966;SDS011;18496;52.042;6.812;2024-03-02T04:35:23;2.67;;;1.20;;
31966;SDS011;18496;52.042;6.812;2024-03-02T04:37:28;3.22;;;1.65;;
31966;SDS011;18496;52.042;6.812;2024-03-02T04:39:31;2.70;;;1.40;;
31966;SDS011;18496;52.042;6.812;2024-03-02T04:41:37;2.70;;;1.30;;
31966;SDS011;18496;52.042;6.812;2024-03-02T04:43:40;3.72;;;1.30;;
31966;SDS011;18496;52.042;6.812;2024-03-02T04:45:44;3.17;;;1.35;;
31966;SDS011;18496;52.042;6.812;2024-03-02T04:47:48;2.60;;;0.93;;
31966;SDS011;18496;52.042;6.812;2024-03-02T04:49:51;4.13;;;1.00;;
31966;SDS011;18496;52.042;6.812;2024-03-02T04:51:55;4.80;;;1.20;;
31966;SDS011;18496;52.042;6.812;2024-03-02T04:54:00;2.05;;;1.10;;
31966;SDS011;18496;52.042;6.812;2024-03-02T04:56:04;1.73;;;1.00;;
31966;SDS011;18496;52.042;6.812;2024-03-02T04:58:42;4.97;;;1.33;;
31966;SDS011;18496;52.042;6.812;2024-03-02T05:00:45;4.90;;;1.30;;
31966;SDS011;18496;52.042;6.812;2024-03-02T05:02:49;2.92;;;0.93;;
31966;SDS011;18496;52.042;6.812;2024-03-02T05:04:54;3.13;;;0.77;;
31966;SDS011;18496;52.042;6.812;2024-03-02T05:06:57;2.47;;;1.05;;
31966;SDS011;18496;52.042;6.812;2024-03-02T05:09:01;1.13;;;1.02;;
31966;SDS011;18496;52.042;6.812;2024-03-02T05:11:05;4.00;;;1.77;;
31966;SDS011;18496;52.042;6.812;2024-03-02T05:13:27;3.15;;;1.40;;
31966;SDS011;18496;52.042;6.812;2024-03-02T05:15:31;3.15;;;1.02;;
31966;SDS011;18496;52.042;6.812;2024-03-02T05:17:34;4.18;;;1.00;;
31966;SDS011;18496;52.042;6.812;2024-03-02T05:19:39;1.75;;;1.10;;
31966;SDS011;18496;52.042;6.812;2024-03-02T05:21:42;3.53;;;1.10;;
31966;SDS011;18496;52.042;6.812;2024-03-02T05:23:46;1.90;;;1.35;;
31966;SDS011;18496;52.042;6.812;2024-03-02T05:25:50;4.25;;;1.17;;
31966;SDS011;18496;52.042;6.812;2024-03-02T05:27:54;4.28;;;1.20;;
31966;SDS011;18496;52.042;6.812;2024-03-02T05:29:57;8.40;;;1.20;;
31966;SDS011;18496;52.042;6.812;2024-03-02T05:32:02;2.47;;;1.23;;
31966;SDS011;18496;52.042;6.812;2024-03-02T05:34:05;2.63;;;1.48;;
31966;SDS011;18496;52.042;6.812;2024-03-02T05:36:09;6.05;;;1.55;;
31966;SDS011;18496;52.042;6.812;2024-03-02T05:38:13;4.75;;;1.77;;
31966;SDS011;18496;52.042;6.812;2024-03-02T05:40:16;12.05;;;1.60;;
31966;SDS011;18496;52.042;6.812;2024-03-02T05:42:20;3.03;;;1.98;;
31966;SDS011;18496;52.042;6.812;2024-03-02T05:44:24;2.92;;;1.50;;
31966;SDS011;18496;52.042;6.812;2024-03-02T05:46:27;3.10;;;1.65;;
31966;SDS011;18496;52.042;6.812;2024-03-02T05:48:31;2.75;;;1.20;;
31966;SDS011;18496;52.042;6.812;2024-03-02T05:50:35;2.50;;;1.30;;
31966;SDS011;18496;52.042;6.812;2024-03-02T05:52:38;3.72;;;1.20;;
31966;SDS011;18496;52.042;6.812;2024-03-02T05:54:42;1.75;;;1.17;;
31966;SDS011;18496;52.042;6.812;2024-03-02T05:56:46;6.95;;;1.60;;
31966;SDS011;18496;52.042;6.812;2024-03-02T05:58:49;2.90;;;1.42;;
31966;SDS011;18496;52.042;6.812;2024-03-02T06:01:12;2.80;;;1.20;;
31966;SDS011;18496;52.042;6.812;2024-03-02T06:03:15;3.13;;;1.58;;
31966;SDS011;18496;52.042;6.812;2024-03-02T06:05:19;4.18;;;1.20;;
31966;SDS011;18496;52.042;6.812;2024-03-02T06:07:22;2.08;;;1.13;;
31966;SDS011;18496;52.042;6.812;2024-03-02T06:09:26;4.78;;;1.50;;
31966;SDS011;18496;52.042;6.812;2024-03-02T06:11:30;4.32;;;1.50;;
31966;SDS011;18496;52.042;6.812;2024-03-02T06:13:34;3.28;;;1.83;;
31966;SDS011;18496;52.042;6.812;2024-03-02T06:15:40;4.30;;;1.67;;
31966;SDS011;18496;52.042;6.812;2024-03-02T06:17:44;6.90;;;2.10;;
31966;SDS011;18496;52.042;6.812;2024-03-02T06:19:48;7.15;;;1.83;;
31966;SDS011;18496;52.042;6.812;2024-03-02T06:21:51;4.53;;;1.73;;
31966;SDS011;18496;52.042;6.812;2024-03-02T06:23:55;3.15;;;1.90;;
31966;SDS011;18496;52.042;6.812;2024-03-02T06:26:00;4.05;;;2.10;;
31966;SDS011;18496;52.042;6.812;2024-03-02T06:28:04;3.40;;;1.77;;
31966;SDS011;18496;52.042;6.812;2024-03-02T06:30:08;4.90;;;1.73;;
31966;SDS011;18496;52.042;6.812;2024-03-02T06:32:13;5.10;;;1.38;;
31966;SDS011;18496;52.042;6.812;2024-03-02T06:34:16;4.63;;;2.08;;
31966;SDS011;18496;52.042;6.812;2024-03-02T06:36:20;5.68;;;1.73;;
31966;SDS011;18496;52.042;6.812;2024-03-02T06:38:24;4.22;;;1.65;;
31966;SDS011;18496;52.042;6.812;2024-03-02T06:40:27;4.13;;;1.77;;
31966;SDS011;18496;52.042;6.812;2024-03-02T06:42:31;4.88;;;1.95;;
31966;SDS011;18496;52.042;6.812;2024-03-02T06:44:36;2.78;;;1.73;;
31966;SDS011;18496;52.042;6.812;2024-03-02T06:46:40;6.88;;;1.83;;
31966;SDS011;18496;52.042;6.812;2024-03-02T06:48:44;3.05;;;1.20;;
31966;SDS011;18496;52.042;6.812;2024-03-02T06:50:47;1.73;;;1.25;;
31966;SDS011;18496;52.042;6.812;2024-03-02T06:52:51;4.72;;;1.42;;
31966;SDS011;18496;52.042;6.812;2024-03-02T06:54:54;3.22;;;1.77;;
31966;SDS011;18496;52.042;6.812;2024-03-02T06:56:58;5.22;;;2.25;;
31966;SDS011;18496;52.042;6.812;2024-03-02T06:59:02;5.70;;;2.38;;
31966;SDS011;18496;52.042;6.812;2024-03-02T07:01:05;2.75;;;1.63;;
31966;SDS011;18496;52.042;6.812;2024-03-02T07:03:09;5.18;;;2.00;;
31966;SDS011;18496;52.042;6.812;2024-03-02T07:05:13;4.65;;;1.85;;
31966;SDS011;18496;52.042;6.812;2024-03-02T07:07:17;2.95;;;1.70;;
31966;SDS011;18496;52.042;6.812;2024-03-02T07:09:20;5.75;;;2.00;;
31966;SDS011;18496;52.042;6.812;2024-03-02T07:11:26;6.40;;;2.30;;
31966;SDS011;18496;52.042;6.812;2024-03-02T07:13:29;3.35;;;2.03;;
31966;SDS011;18496;52.042;6.812;2024-03-02T07:15:33;5.45;;;2.17;;
31966;SDS011;18496;52.042;6.812;2024-03-02T07:17:55;3.80;;;1.98;;
31966;SDS011;18496;52.042;6.812;2024-03-02T07:19:59;6.05;;;2.20;;
31966;SDS011;18496;52.042;6.812;2024-03-02T07:22:05;6.28;;;2.15;;
31966;SDS011;18496;52.042;6.812;2024-03-02T07:24:10;4.38;;;1.98;;
31966;SDS011;18496;52.042;6.812;2024-03-02T07:26:16;4.60;;;2.15;;
31966;SDS011;18496;52.042;6.812;2024-03-02T07:28:23;4.05;;;2.33;;
31966;SDS011;18496;52.042;6.812;2024-03-02T07:30:27;4.63;;;2.58;;
31966;SDS011;18496;52.042;6.812;2024-03-02T07:32:30;3.42;;;2.05;;
31966;SDS011;18496;52.042;6.812;2024-03-02T07:34:34;5.72;;;2.22;;
31966;SDS011;18496;52.042;6.812;2024-03-02T07:36:38;4.90;;;2.42;;
31966;SDS011;18496;52.042;6.812;2024-03-02T07:38:42;4.20;;;2.15;;
31966;SDS011;18496;52.042;6.812;2024-03-02T07:40:48;6.57;;;2.75;;
31966;SDS011;18496;52.042;6.812;2024-03-02T07:42:55;5.28;;;2.55;;
31966;SDS011;18496;52.042;6.812;2024-03-02T07:44:59;6.63;;;2.70;;
31966;SDS011;18496;52.042;6.812;2024-03-02T07:47:02;4.15;;;2.00;;
31966;SDS011;18496;52.042;6.812;2024-03-02T07:49:06;3.90;;;2.10;;
31966;SDS011;18496;52.042;6.812;2024-03-02T07:51:11;4.47;;;2.15;;
31966;SDS011;18496;52.042;6.812;2024-03-02T07:53:14;2.85;;;1.77;;
31966;SDS011;18496;52.042;6.812;2024-03-02T07:55:18;3.80;;;2.13;;
31966;SDS011;18496;52.042;6.812;2024-03-02T07:57:22;5.22;;;2.00;;
31966;SDS011;18496;52.042;6.812;2024-03-02T07:59:25;5.97;;;2.10;;
31966;SDS011;18496;52.042;6.812;2024-03-02T08:01:30;4.82;;;2.30;;
31966;SDS011;18496;52.042;6.812;2024-03-02T08:03:34;4.75;;;2.58;;
31966;SDS011;18496;52.042;6.812;2024-03-02T08:05:38;5.82;;;2.03;;
31966;SDS011;18496;52.042;6.812;2024-03-02T08:07:43;7.85;;;2.88;;
31966;SDS011;18496;52.042;6.812;2024-03-02T08:09:47;6.22;;;2.17;;
31966;SDS011;18496;52.042;6.812;2024-03-02T08:11:51;4.22;;;2.17;;
31966;SDS011;18496;52.042;6.812;2024-03-02T08:13:55;3.53;;;2.08;;
31966;SDS011;18496;52.042;6.812;2024-03-02T08:15:58;9.20;;;2.33;;
31966;SDS011;18496;52.042;6.812;2024-03-02T08:18:02;4.40;;;2.30;;
31966;SDS011;18496;52.042;6.812;2024-03-02T08:20:06;6.47;;;2.47;;
31966;SDS011;18496;52.042;6.812;2024-03-02T08:22:11;5.57;;;1.95;;
31966;SDS011;18496;52.042;6.812;2024-03-02T08:24:15;4.30;;;2.08;;
31966;SDS011;18496;52.042;6.812;2024-03-02T08:26:18;4.13;;;1.90;;
31966;SDS011;18496;52.042;6.812;2024-03-02T08:28:22;3.67;;;1.88;;
31966;SDS011;18496;52.042;6.812;2024-03-02T08:30:26;5.80;;;2.28;;
31966;SDS011;18496;52.042;6.812;2024-03-02T08:32:29;4.60;;;2.25;;
31966;SDS011;18496;52.042;6.812;2024-03-02T08:34:33;6.45;;;2.40;;
31966;SDS011;18496;52.042;6.812;2024-03-02T08:36:38;3.38;;;1.88;;
31966;SDS011;18496;52.042;6.812;2024-03-02T08:38:43;6.03;;;2.15;;
31966;SDS011;18496;52.042;6.812;2024-03-02T08:40:47;4.65;;;2.47;;
31966;SDS011;18496;52.042;6.812;2024-03-02T08:42:52;4.70;;;2.17;;
31966;SDS011;18496;52.042;6.812;2024-03-02T08:44:56;5.13;;;1.90;;
31966;SDS011;18496;52.042;6.812;2024-03-02T08:47:00;3.90;;;2.13;;
31966;SDS011;18496;52.042;6.812;2024-03-02T08:49:04;3.88;;;2.20;;
31966;SDS011;18496;52.042;6.812;2024-03-02T08:51:07;7.22;;;1.88;;
31966;SDS011;18496;52.042;6.812;2024-03-02T08:53:13;4.65;;;2.00;;
31966;SDS011;18496;52.042;6.812;2024-03-02T08:55:21;4.45;;;1.95;;
31966;SDS011;18496;52.042;6.812;2024-03-02T08:57:25;3.75;;;1.83;;
31966;SDS011;18496;52.042;6.812;2024-03-02T08:59:28;6.18;;;2.00;;
31966;SDS011;18496;52.042;6.812;2024-03-02T09:01:32;4.97;;;2.13;;
31966;SDS011;18496;52.042;6.812;2024-03-02T09:03:36;4.10;;;2.05;;
31966;SDS011;18496;52.042;6.812;2024-03-02T09:05:40;4.88;;;2.35;;
31966;SDS011;18496;52.042;6.812;2024-03-02T09:07:44;7.88;;;2.53;;
31966;SDS011;18496;52.042;6.812;2024-03-02T09:09:47;4.07;;;2.15;;
31966;SDS011;18496;52.042;6.812;2024-03-02T09:11:51;3.72;;;2.05;;
31966;SDS011;18496;52.042;6.812;2024-03-02T09:13:57;6.22;;;2.00;;
31966;SDS011;18496;52.042;6.812;2024-03-02T09:16:01;3.75;;;2.22;;
31966;SDS011;18496;52.042;6.812;2024-03-02T09:18:05;4.65;;;1.77;;
31966;SDS011;18496;52.042;6.812;2024-03-02T09:20:10;5.68;;;2.25;;
31966;SDS011;18496;52.042;6.812;2024-03-02T09:22:14;4.22;;;1.80;;
31966;SDS011;18496;52.042;6.812;2024-03-02T09:24:17;6.20;;;2.38;;
31966;SDS011;18496;52.042;6.812;2024-03-02T09:26:21;2.78;;;1.75;;
31966;SDS011;18496;52.042;6.812;2024-03-02T09:28:25;4.45;;;2.08;;
31966;SDS011;18496;52.042;6.812;2024-03-02T09:30:29;6.60;;;2.10;;
31966;SDS011;18496;52.042;6.812;2024-03-02T09:32:33;5.90;;;2.42;;
31966;SDS011;18496;52.042;6.812;2024-03-02T09:34:36;4.45;;;2.22;;
31966;SDS011;18496;52.042;6.812;2024-03-02T09:36:40;5.32;;;1.70;;
31966;SDS011;18496;52.042;6.812;2024-03-02T09:38:44;4.50;;;2.05;;
31966;SDS011;18496;52.042;6.812;2024-03-02T09:40:48;6.15;;;2.00;;
31966;SDS011;18496;52.042;6.812;2024-03-02T09:42:51;12.23;;;2.35;;
31966;SDS011;18496;52.042;6.812;2024-03-02T09:44:56;4.35;;;2.38;;
31966;SDS011;18496;52.042;6.812;2024-03-02T09:47:00;2.30;;;1.80;;
31966;SDS011;18496;52.042;6.812;2024-03-02T09:49:04;3.67;;;2.17;;
31966;SDS011;18496;52.042;6.812;2024-03-02T09:51:08;5.60;;;2.05;;
31966;SDS011;18496;52.042;6.812;2024-03-02T09:53:12;4.60;;;1.90;;
31966;SDS011;18496;52.042;6.812;2024-03-02T09:55:17;8.48;;;2.40;;
31966;SDS011;18496;52.042;6.812;2024-03-02T09:57:22;4.13;;;2.10;;
31966;SDS011;18496;52.042;6.812;2024-03-02T09:59:25;4.15;;;2.20;;
31966;SDS011;18496;52.042;6.812;2024-03-02T10:01:31;5.90;;;2.60;;
31966;SDS011;18496;52.042;6.812;2024-03-02T10:03:34;6.57;;;2.10;;
31966;SDS011;18496;52.042;6.812;2024-03-02T10:05:40;3.72;;;2.10;;
31966;SDS011;18496;52.042;6.812;2024-03-02T10:07:45;6.13;;;2.28;;
31966;SDS011;18496;52.042;6.812;2024-03-02T10:10:13;3.85;;;2.35;;
31966;SDS011;18496;52.042;6.812;2024-03-02T10:12:18;11.07;;;1.83;;
31966;SDS011;18496;52.042;6.812;2024-03-02T10:14:21;3.95;;;1.55;;
31966;SDS011;18496;52.042;6.812;2024-03-02T10:16:25;3.10;;;1.25;;
31966;SDS011;18496;52.042;6.812;2024-03-02T10:18:29;7.68;;;2.10;;
31966;SDS011;18496;52.042;6.812;2024-03-02T10:20:34;7.75;;;2.15;;
31966;SDS011;18496;52.042;6.812;2024-03-02T10:22:38;3.15;;;1.80;;
31966;SDS011;18496;52.042;6.812;2024-03-02T10:24:42;5.70;;;1.90;;
31966;SDS011;18496;52.042;6.812;2024-03-02T10:26:48;4.80;;;2.10;;
31966;SDS011;18496;52.042;6.812;2024-03-02T10:28:52;3.90;;;1.85;;
31966;SDS011;18496;52.042;6.812;2024-03-02T10:31:02;5.18;;;2.03;;
31966;SDS011;18496;52.042;6.812;2024-03-02T10:33:06;4.75;;;2.00;;
31966;SDS011;18496;52.042;6.812;2024-03-02T10:35:10;3.20;;;1.85;;
31966;SDS011;18496;52.042;6.812;2024-03-02T10:37:13;3.05;;;1.92;;
31966;SDS011;18496;52.042;6.812;2024-03-02T10:39:18;3.33;;;1.80;;
31966;SDS011;18496;52.042;6.812;2024-03-02T10:41:23;7.82;;;1.83;;
31966;SDS011;18496;52.042;6.812;2024-03-02T10:43:28;6.18;;;1.70;;
31966;SDS011;18496;52.042;6.812;2024-03-02T10:45:32;3.72;;;1.80;;
31966;SDS011;18496;52.042;6.812;2024-03-02T10:47:35;3.67;;;1.90;;
31966;SDS011;18496;52.042;6.812;2024-03-02T10:49:41;7.25;;;1.98;;
31966;SDS011;18496;52.042;6.812;2024-03-02T10:51:46;4.85;;;1.88;;
31966;SDS011;18496;52.042;6.812;2024-03-02T10:53:50;2.78;;;1.88;;
31966;SDS011;18496;52.042;6.812;2024-03-02T10:55:55;7.85;;;2.35;;
31966;SDS011;18496;52.042;6.812;2024-03-02T10:58:05;7.78;;;2.95;;
31966;SDS011;18496;52.042;6.812;2024-03-02T11:00:13;5.28;;;2.10;;
31966;SDS011;18496;52.042;6.812;2024-03-02T11:02:21;3.90;;;2.03;;
31966;SDS011;18496;52.042;6.812;2024-03-02T11:04:26;4.22;;;2.35;;
31966;SDS011;18496;52.042;6.812;2024-03-02T11:06:30;5.60;;;2.20;;
31966;SDS011;18496;52.042;6.812;2024-03-02T11:08:38;4.20;;;2.17;;
31966;SDS011;18496;52.042;6.812;2024-03-02T11:10:51;3.70;;;2.00;;
31966;SDS011;18496;52.042;6.812;2024-03-02T11:13:02;3.53;;;2.00;;
31966;SDS011;18496;52.042;6.812;2024-03-02T11:15:10;6.55;;;2.20;;
31966;SDS011;18496;52.042;6.812;2024-03-02T11:17:16;2.42;;;1.60;;
31966;SDS011;18496;52.042;6.812;2024-03-02T11:19:21;3.22;;;1.40;;
31966;SDS011;18496;52.042;6.812;2024-03-02T11:21:25;3.63;;;1.85;;
31966;SDS011;18496;52.042;6.812;2024-03-02T11:23:32;5.13;;;2.00;;
31966;SDS011;18496;52.042;6.812;2024-03-02T11:25:37;5.78;;;2.13;;
31966;SDS011;18496;52.042;6.812;2024-03-02T11:29:49;4.35;;;1.48;;
31966;SDS011;18496;52.042;6.812;2024-03-02T11:31:58;6.20;;;1.90;;
31966;SDS011;18496;52.042;6.812;2024-03-02T11:36:36;5.75;;;2.05;;
31966;SDS011;18496;52.042;6.812;2024-03-02T11:38:40;3.42;;;1.75;;
31966;SDS011;18496;52.042;6.812;2024-03-02T11:40:48;3.88;;;1.70;;
31966;SDS011;18496;52.042;6.812;2024-03-02T11:42:52;3.10;;;2.00;;
31966;SDS011;18496;52.042;6.812;2024-03-02T11:44:56;5.75;;;2.00;;
31966;SDS011;18496;52.042;6.812;2024-03-02T11:47:00;4.47;;;1.52;;
31966;SDS011;18496;52.042;6.812;2024-03-02T11:49:06;4.60;;;1.80;;
31966;SDS011;18496;52.042;6.812;2024-03-02T11:51:09;4.22;;;1.75;;
31966;SDS011;18496;52.042;6.812;2024-03-02T11:53:15;3.65;;;1.85;;
31966;SDS011;18496;52.042;6.812;2024-03-02T11:55:20;3.53;;;1.80;;
31966;SDS011;18496;52.042;6.812;2024-03-02T11:57:25;3.78;;;1.67;;
31966;SDS011;18496;52.042;6.812;2024-03-02T11:59:30;2.97;;;1.73;;
31966;SDS011;18496;52.042;6.812;2024-03-02T12:01:34;2.90;;;1.75;;
31966;SDS011;18496;52.042;6.812;2024-03-02T12:03:38;3.85;;;1.50;;
31966;SDS011;18496;52.042;6.812;2024-03-02T12:05:42;2.58;;;1.55;;
31966;SDS011;18496;52.042;6.812;2024-03-02T12:07:46;3.20;;;1.63;;
31966;SDS011;18496;52.042;6.812;2024-03-02T12:10:00;3.08;;;1.45;;
31966;SDS011;18496;52.042;6.812;2024-03-02T12:12:05;1.83;;;1.30;;
31966;SDS011;18496;52.042;6.812;2024-03-02T12:14:12;4.80;;;1.80;;
31966;SDS011;18496;52.042;6.812;2024-03-02T12:16:22;6.97;;;1.92;;
31966;SDS011;18496;52.042;6.812;2024-03-02T12:18:29;1.85;;;1.50;;
31966;SDS011;18496;52.042;6.812;2024-03-02T12:20:33;2.55;;;1.60;;
31966;SDS011;18496;52.042;6.812;2024-03-02T12:22:37;4.55;;;2.10;;
31966;SDS011;18496;52.042;6.812;2024-03-02T12:24:41;2.63;;;1.33;;
31966;SDS011;18496;52.042;6.812;2024-03-02T12:26:45;6.68;;;1.77;;
31966;SDS011;18496;52.042;6.812;2024-03-02T12:28:50;2.95;;;1.77;;
31966;SDS011;18496;52.042;6.812;2024-03-02T12:30:54;3.05;;;1.30;;
31966;SDS011;18496;52.042;6.812;2024-03-02T12:32:58;2.00;;;1.40;;
31966;SDS011;18496;52.042;6.812;2024-03-02T12:35:04;4.75;;;1.52;;
31966;SDS011;18496;52.042;6.812;2024-03-02T12:37:08;2.22;;;1.58;;
31966;SDS011;18496;52.042;6.812;2024-03-02T12:39:16;2.92;;;1.33;;
31966;SDS011;18496;52.042;6.812;2024-03-02T12:41:20;1.83;;;1.20;;
31966;SDS011;18496;52.042;6.812;2024-03-02T12:43:30;6.47;;;1.42;;